createdAt,value
2023-04-12T04:34:41.693Z,99589.78
2023-04-12T04:37:44.921Z,99589.78
2023-04-12T04:40:53.443Z,99598.84
2023-04-12T04:43:56.483Z,99601.44
2023-04-12T04:47:00.922Z,99602.09
2023-04-12T04:50:03.515Z,99597.53
2023-04-12T04:53:06.400Z,99596.75
2023-04-12T04:56:09.479Z,99596.59
2023-04-12T04:59:12.030Z,99592.78
2023-04-12T05:02:14.725Z,99590.13
2023-04-12T05:05:17.468Z,99598.69
2023-04-12T05:08:19.969Z,99600.88
2023-04-12T05:11:22.473Z,99605.22
2023-04-12T05:14:31.017Z,99607.53
2023-04-12T05:17:44.239Z,99605.66
2023-04-12T05:20:48.473Z,99602.75
2023-04-12T05:23:51.181Z,99595.94
2023-04-12T05:26:53.786Z,99601.59
2023-04-12T05:29:59.588Z,99601.31
2023-04-12T05:33:02.201Z,99604.75
2023-04-12T05:36:05.445Z,99594.38
2023-04-12T05:39:08.340Z,99601.69
2023-04-12T05:42:11.122Z,99597.25
2023-04-12T05:45:13.677Z,99602.88
2023-04-12T05:48:16.526Z,99596.06
2023-04-12T05:51:25.123Z,99598.47
2023-04-12T05:54:30.570Z,99594.94
2023-04-12T05:57:33.424Z,99603.41
2023-04-12T06:00:36.415Z,99592.59
2023-04-12T06:03:41.893Z,99593.28
2023-04-12T06:06:44.814Z,99608.47
2023-04-12T06:09:47.608Z,99604.75
2023-04-12T06:12:50.183Z,99619.09
2023-04-12T06:15:52.687Z,99614.72
2023-04-12T06:18:55.606Z,99618.00
2023-04-12T06:21:58.279Z,99621.19
2023-04-12T06:25:01.023Z,99612.00
2023-04-12T06:28:03.716Z,99612.31
2023-04-12T06:31:07.081Z,99616.44
2023-04-12T06:34:09.714Z,99607.69
2023-04-12T06:37:12.246Z,99610.25
2023-04-12T06:40:14.897Z,99611.22
2023-04-12T06:43:19.328Z,99611.75
2023-04-12T06:46:28.523Z,99628.09
2023-04-12T06:49:31.267Z,99613.88
2023-04-12T06:52:34.124Z,99616.88
2023-04-12T06:55:36.631Z,99608.78
2023-04-12T06:58:39.380Z,99615.50
2023-04-12T07:01:43.377Z,99611.22
2023-04-12T07:04:46.391Z,99611.16
2023-04-12T07:07:48.964Z,99607.44
2023-04-12T07:10:55.447Z,99603.41
2023-04-12T07:13:59.294Z,99608.69
2023-04-12T07:17:02.148Z,99610.56
2023-04-12T07:20:05.240Z,99616.69
2023-04-12T07:23:08.023Z,99625.63
2023-04-12T07:26:10.947Z,99618.56
2023-04-12T07:29:15.378Z,99622.75
2023-04-12T07:32:18.289Z,99619.16
2023-04-12T07:35:21.195Z,99621.53
2023-04-12T07:38:23.925Z,99618.44
2023-04-12T07:41:26.544Z,99620.87
2023-04-12T07:44:29.177Z,99621.03
2023-04-12T07:47:32.996Z,99626.53
2023-04-12T07:50:35.675Z,99633.72
2023-04-12T07:53:39.012Z,99628.78
2023-04-12T07:56:41.815Z,99623.12
2023-04-12T07:59:44.379Z,99621.28
2023-04-12T08:02:47.098Z,99623.09
2023-04-12T08:05:53.740Z,99623.56
2023-04-12T08:08:57.299Z,99617.06
2023-04-12T08:12:00.050Z,99613.75
2023-04-12T08:15:02.732Z,99624.97
2023-04-12T08:18:05.692Z,99629.75
2023-04-12T08:21:08.276Z,99627.28
2023-04-12T08:24:11.216Z,99631.06
2023-04-12T08:27:14.140Z,99633.22
2023-04-12T08:30:16.977Z,99625.38
2023-04-12T08:33:19.568Z,99625.81
2023-04-12T08:36:22.312Z,99628.88
2023-04-12T08:39:24.996Z,99629.06
2023-04-12T08:42:27.758Z,99636.06
2023-04-12T08:45:30.371Z,99623.94
2023-04-12T08:48:32.958Z,99627.59
2023-04-12T08:51:37.167Z,99626.63
2023-04-12T08:54:39.780Z,99621.38
2023-04-12T08:57:42.738Z,99616.81
2023-04-12T09:00:46.463Z,99610.69
2023-04-12T09:03:49.244Z,99606.78
2023-04-12T09:06:52.070Z,99609.88
2023-04-12T09:09:55.056Z,99613.47
2023-04-12T09:12:57.615Z,99610.91
2023-04-12T09:16:00.457Z,99615.78
2023-04-12T09:19:03.693Z,99615.97
2023-04-12T09:22:06.311Z,99604.63
2023-04-12T09:25:09.005Z,99603.56
2023-04-12T09:28:20.147Z,99602.88
2023-04-12T09:31:23.508Z,99609.56
2023-04-12T09:34:27.914Z,99602.91
2023-04-12T09:37:30.856Z,99585.12
2023-04-12T09:40:36.437Z,99587.91
2023-04-12T09:43:39.408Z,99584.59
2023-04-12T09:46:52.054Z,99587.72
2023-04-12T09:49:54.736Z,99593.28
2023-04-12T09:52:57.675Z,99581.16
2023-04-12T09:56:00.275Z,99582.37
2023-04-12T09:59:04.269Z,99578.38
2023-04-12T10:02:17.489Z,99579.50
2023-04-12T10:05:21.720Z,99571.59
2023-04-12T10:08:24.583Z,99565.41
2023-04-12T10:11:30.398Z,99566.66
2023-04-12T10:14:33.021Z,99559.03
2023-04-12T10:17:36.086Z,99558.56
2023-04-12T10:20:40.298Z,99564.91
2023-04-12T10:23:45.124Z,99563.41
2023-04-12T10:26:50.877Z,99564.25
2023-04-12T10:29:53.767Z,99558.37
2023-04-12T10:33:02.515Z,99563.88
2023-04-12T10:36:08.889Z,99571.16
2023-04-12T10:39:11.561Z,99566.06
2023-04-12T10:42:18.171Z,99560.28
2023-04-12T10:45:23.804Z,99557.00
2023-04-12T10:48:33.635Z,99539.69
2023-04-12T10:51:36.835Z,99541.50
2023-04-12T10:54:39.751Z,99539.53
2023-04-12T10:57:45.588Z,99537.38
2023-04-12T11:00:58.446Z,99533.19
2023-04-12T11:04:18.234Z,99540.59
2023-04-12T11:07:21.096Z,99527.72
2023-04-12T11:10:26.022Z,99522.34
2023-04-12T11:13:29.253Z,99518.28
2023-04-12T11:16:32.002Z,99521.63
2023-04-12T11:19:36.862Z,99520.22
2023-04-12T11:22:40.658Z,99521.63
2023-04-12T11:25:44.146Z,99525.84
2023-04-12T11:28:48.305Z,99513.44
2023-04-12T11:31:51.188Z,99515.56
2023-04-12T11:34:54.207Z,99510.84
2023-04-12T11:37:58.474Z,99506.69
2023-04-12T11:41:01.094Z,99507.84
2023-04-12T11:44:03.676Z,99513.87
2023-04-12T11:47:06.292Z,99507.00
2023-04-12T11:50:09.297Z,99512.25
2023-04-12T11:53:12.838Z,99500.13
2023-04-12T11:56:15.419Z,99485.94
2023-04-12T11:59:17.892Z,99487.97
2023-04-12T12:02:24.093Z,99493.72
2023-04-12T12:05:28.055Z,99491.22
2023-04-12T12:08:31.859Z,99479.25
2023-04-12T12:11:34.502Z,99479.84
2023-04-12T12:14:37.163Z,99464.72
2023-04-12T12:17:39.823Z,99466.50
2023-04-12T12:20:51.978Z,99467.06
2023-04-12T12:23:56.805Z,99474.44
2023-04-12T12:27:03.425Z,99460.66
2023-04-12T12:30:07.840Z,99449.41
2023-04-12T12:33:10.994Z,99459.06
2023-04-12T12:36:16.231Z,99453.34
2023-04-12T12:39:18.598Z,99455.22
2023-04-12T12:42:21.079Z,99448.69
2023-04-12T12:45:24.657Z,99441.62
2023-04-12T12:48:27.315Z,99439.19
2023-04-12T12:51:29.899Z,99435.41
2023-04-12T12:54:41.054Z,99439.41
2023-04-12T12:57:51.985Z,99435.63
2023-04-12T13:01:04.866Z,99429.75
2023-04-12T13:04:07.507Z,99425.03
2023-04-12T13:07:10.102Z,99429.56
2023-04-12T13:10:12.937Z,99432.03
2023-04-12T13:13:15.617Z,99433.09
2023-04-12T13:16:18.136Z,99427.69
2023-04-12T13:19:21.003Z,99432.91
2023-04-12T13:22:23.755Z,99427.91
2023-04-12T13:25:26.774Z,99421.59
2023-04-12T13:28:29.351Z,99414.63
2023-04-12T13:31:32.011Z,99419.41
2023-04-12T13:34:34.733Z,99419.13
2023-04-12T13:37:37.327Z,99416.16
2023-04-12T13:40:39.903Z,99419.84
2023-04-12T13:43:42.433Z,99412.31
2023-04-12T13:46:45.005Z,99413.50
2023-04-12T13:49:47.549Z,99403.81
2023-04-12T13:52:50.169Z,99402.88
2023-04-12T13:55:52.804Z,99405.56
2023-04-12T13:58:57.039Z,99400.63
2023-04-12T14:02:00.802Z,99401.03
2023-04-12T14:05:04.200Z,99407.31
2023-04-12T14:08:06.846Z,99404.50
2023-04-12T14:11:09.502Z,99401.25
2023-04-12T14:14:12.340Z,99402.16
2023-04-12T14:17:15.969Z,99394.25
2023-04-12T14:20:19.710Z,99391.87
2023-04-12T14:23:25.027Z,99394.50
2023-04-12T14:26:27.670Z,99391.87
2023-04-12T14:29:30.260Z,99386.69
2023-04-12T14:32:32.934Z,99389.88
2023-04-12T14:35:35.584Z,99381.09
2023-04-12T14:38:38.138Z,99385.06
2023-04-12T14:41:40.828Z,99383.13
2023-04-12T14:44:43.435Z,99394.09
2023-04-12T14:47:46.083Z,99396.16
2023-04-12T14:50:48.764Z,99393.44
2023-04-12T14:53:51.511Z,99379.41
2023-04-12T14:56:56.039Z,99380.22
2023-04-12T14:59:59.090Z,99380.91
2023-04-12T15:03:02.013Z,99380.91
2023-04-12T15:06:05.220Z,99381.97
2023-04-12T15:09:08.226Z,99378.75
2023-04-12T15:12:10.927Z,99382.00
2023-04-12T15:15:13.669Z,99373.28
2023-04-12T15:18:16.255Z,99378.91
2023-04-12T15:21:19.015Z,99379.44
